Strona główna
METAR-TAF:

METAR-TAF

Lotnisko :

Port lotniczy Exeter

Exeter, Anglia

Szerokość geograficzna: 50-44N, Długość geograficzna: 003-25W, wysokość: 30 m

Aktualna obserwacja pogody

Raport powstał 24 minut temu, godzina 13:20 UTC
Wiatr 16 kt od zachodnio-północny zachód
Temperatura 15°C
Wilgotność 51%
Ciśnienie 1005 hPa
Widzialność 10 km lub więcej
Rozproszone chmury na wysokości 3500 ft

METAR: EGTE 041320Z 29016KT 9999 SCT035 15/05 Q1005

czas: 14:44 (13:44 UTC)

Prognoza

Raport powstał 5 godziny i 40 minut temu, godzina 08:04 UTC
Prognoza ważna od 04 godzina 09 UTC do 04 godzina 16 UTC
Wiatr 9 kt od północno-północny zachód
Widzialność 10 km lub więcej
Rozproszone chmury na wysokości 2500 ft

TAF: EGTE 040804Z 0409/0416 33009KT 9999 SCT025

Obserwacja i prognoza pogody dla ponad 4000 lotnisk (raport METAR i TAF).

Dostępne stacje oznaczono żółtymi i czerwonymi punktami na mapie.

Najedź kursorem aby zobaczyć nazwę stacji.

Kliknij aby zobaczyć obserwacje i prognozy pogody.

Aby zmienić mapę: kliknij na zielony przycisk z czarnym krzyżykiem, aby powiększyć; na zielony przycisk z myślnikiem, aby pomniejszyć; na zielone strzałki, aby przejść do map sąsiednich.


METAR-TAF: